sensor_id;sensor_type;location;lat;lon;timestamp;P1;durP1;ratioP1;P2;durP2;ratioP2
7669;SDS011;3877;42.562;27.636;2022-10-26T00:00:23;27.63;;;15.37;;
7669;SDS011;3877;42.562;27.636;2022-10-26T00:02:53;25.13;;;14.40;;
7669;SDS011;3877;42.562;27.636;2022-10-26T00:05:20;22.63;;;15.27;;
7669;SDS011;3877;42.562;27.636;2022-10-26T00:07:47;23.53;;;14.93;;
7669;SDS011;3877;42.562;27.636;2022-10-26T00:10:14;25.17;;;15.50;;
7669;SDS011;3877;42.562;27.636;2022-10-26T00:12:41;25.65;;;14.93;;
7669;SDS011;3877;42.562;27.636;2022-10-26T00:15:08;28.50;;;14.90;;
7669;SDS011;3877;42.562;27.636;2022-10-26T00:17:35;23.80;;;15.00;;
7669;SDS011;3877;42.562;27.636;2022-10-26T00:20:04;24.80;;;16.17;;
7669;SDS011;3877;42.562;27.636;2022-10-26T00:22:31;22.30;;;15.15;;
7669;SDS011;3877;42.562;27.636;2022-10-26T00:24:58;26.30;;;15.02;;
7669;SDS011;3877;42.562;27.636;2022-10-26T00:27:25;24.02;;;16.23;;
7669;SDS011;3877;42.562;27.636;2022-10-26T00:29:51;26.05;;;16.02;;
7669;SDS011;3877;42.562;27.636;2022-10-26T00:32:18;28.50;;;16.08;;
7669;SDS011;3877;42.562;27.636;2022-10-26T00:34:45;24.13;;;16.47;;
7669;SDS011;3877;42.562;27.636;2022-10-26T00:37:13;28.17;;;16.47;;
7669;SDS011;3877;42.562;27.636;2022-10-26T00:39:40;28.67;;;16.63;;
7669;SDS011;3877;42.562;27.636;2022-10-26T00:42:08;23.47;;;16.53;;
7669;SDS011;3877;42.562;27.636;2022-10-26T00:44:47;29.10;;;16.90;;
7669;SDS011;3877;42.562;27.636;2022-10-26T00:47:22;26.13;;;16.87;;
7669;SDS011;3877;42.562;27.636;2022-10-26T00:49:51;32.63;;;16.73;;
7669;SDS011;3877;42.562;27.636;2022-10-26T00:52:20;25.87;;;16.63;;
7669;SDS011;3877;42.562;27.636;2022-10-26T00:54:48;23.03;;;16.67;;
7669;SDS011;3877;42.562;27.636;2022-10-26T00:57:15;27.50;;;17.67;;
7669;SDS011;3877;42.562;27.636;2022-10-26T00:59:42;30.47;;;17.43;;
7669;SDS011;3877;42.562;27.636;2022-10-26T01:02:09;32.77;;;18.63;;
7669;SDS011;3877;42.562;27.636;2022-10-26T01:04:37;26.97;;;17.90;;
7669;SDS011;3877;42.562;27.636;2022-10-26T01:07:04;27.43;;;17.70;;
7669;SDS011;3877;42.562;27.636;2022-10-26T01:09:33;34.23;;;18.03;;
7669;SDS011;3877;42.562;27.636;2022-10-26T01:12:01;29.10;;;18.07;;
7669;SDS011;3877;42.562;27.636;2022-10-26T01:14:28;32.60;;;18.50;;
7669;SDS011;3877;42.562;27.636;2022-10-26T01:16:57;33.43;;;18.53;;
7669;SDS011;3877;42.562;27.636;2022-10-26T01:22:18;24.10;;;18.03;;
7669;SDS011;3877;42.562;27.636;2022-10-26T01:24:54;28.70;;;19.47;;
7669;SDS011;3877;42.562;27.636;2022-10-26T01:27:23;29.17;;;18.60;;
7669;SDS011;3877;42.562;27.636;2022-10-26T01:30:12;27.70;;;18.03;;
7669;SDS011;3877;42.562;27.636;2022-10-26T01:32:40;28.80;;;19.42;;
7669;SDS011;3877;42.562;27.636;2022-10-26T01:35:11;30.83;;;19.40;;
7669;SDS011;3877;42.562;27.636;2022-10-26T01:37:46;36.20;;;20.50;;
7669;SDS011;3877;42.562;27.636;2022-10-26T01:40:15;30.10;;;19.67;;
7669;SDS011;3877;42.562;27.636;2022-10-26T01:42:43;32.70;;;19.77;;
7669;SDS011;3877;42.562;27.636;2022-10-26T01:45:15;30.55;;;20.35;;
7669;SDS011;3877;42.562;27.636;2022-10-26T01:47:43;31.33;;;20.50;;
7669;SDS011;3877;42.562;27.636;2022-10-26T01:50:11;30.45;;;19.88;;
7669;SDS011;3877;42.562;27.636;2022-10-26T01:52:38;32.83;;;20.15;;
7669;SDS011;3877;42.562;27.636;2022-10-26T01:55:06;30.37;;;19.50;;
7669;SDS011;3877;42.562;27.636;2022-10-26T01:57:33;32.27;;;19.27;;
7669;SDS011;3877;42.562;27.636;2022-10-26T02:00:03;44.03;;;20.10;;
7669;SDS011;3877;42.562;27.636;2022-10-26T02:02:53;30.77;;;19.30;;
7669;SDS011;3877;42.562;27.636;2022-10-26T02:05:29;28.07;;;18.80;;
7669;SDS011;3877;42.562;27.636;2022-10-26T02:07:59;31.27;;;18.50;;
7669;SDS011;3877;42.562;27.636;2022-10-26T02:10:30;33.83;;;17.47;;
7669;SDS011;3877;42.562;27.636;2022-10-26T02:13:05;39.83;;;18.23;;
7669;SDS011;3877;42.562;27.636;2022-10-26T02:15:37;29.57;;;17.27;;
7669;SDS011;3877;42.562;27.636;2022-10-26T02:18:10;25.93;;;17.33;;
7669;SDS011;3877;42.562;27.636;2022-10-26T02:20:40;33.27;;;18.30;;
7669;SDS011;3877;42.562;27.636;2022-10-26T02:23:09;30.73;;;17.83;;
7669;SDS011;3877;42.562;27.636;2022-10-26T02:25:38;29.87;;;16.87;;
7669;SDS011;3877;42.562;27.636;2022-10-26T02:28:07;19.60;;;13.50;;
7669;SDS011;3877;42.562;27.636;2022-10-26T02:30:36;18.67;;;11.20;;
7669;SDS011;3877;42.562;27.636;2022-10-26T02:33:04;17.03;;;9.40;;
7669;SDS011;3877;42.562;27.636;2022-10-26T02:35:34;15.20;;;8.27;;
7669;SDS011;3877;42.562;27.636;2022-10-26T02:38:04;12.23;;;7.23;;
7669;SDS011;3877;42.562;27.636;2022-10-26T02:40:31;14.27;;;6.67;;
7669;SDS011;3877;42.562;27.636;2022-10-26T02:43:00;13.37;;;6.93;;
7669;SDS011;3877;42.562;27.636;2022-10-26T02:45:30;10.00;;;6.30;;
7669;SDS011;3877;42.562;27.636;2022-10-26T02:47:59;8.90;;;6.07;;
7669;SDS011;3877;42.562;27.636;2022-10-26T02:50:26;16.33;;;6.60;;
7669;SDS011;3877;42.562;27.636;2022-10-26T02:53:00;13.37;;;6.23;;
7669;SDS011;3877;42.562;27.636;2022-10-26T02:55:31;13.57;;;6.67;;
7669;SDS011;3877;42.562;27.636;2022-10-26T02:58:00;12.67;;;5.73;;
7669;SDS011;3877;42.562;27.636;2022-10-26T03:00:27;10.80;;;5.50;;
7669;SDS011;3877;42.562;27.636;2022-10-26T03:02:55;11.90;;;5.47;;
7669;SDS011;3877;42.562;27.636;2022-10-26T03:05:23;7.30;;;5.07;;
7669;SDS011;3877;42.562;27.636;2022-10-26T03:07:51;8.45;;;4.88;;
7669;SDS011;3877;42.562;27.636;2022-10-26T03:10:19;10.57;;;4.97;;
7669;SDS011;3877;42.562;27.636;2022-10-26T03:12:47;8.70;;;5.23;;
7669;SDS011;3877;42.562;27.636;2022-10-26T03:15:14;10.90;;;4.75;;
7669;SDS011;3877;42.562;27.636;2022-10-26T03:17:41;7.70;;;4.90;;
7669;SDS011;3877;42.562;27.636;2022-10-26T03:20:08;6.80;;;3.90;;
7669;SDS011;3877;42.562;27.636;2022-10-26T03:22:35;8.83;;;3.93;;
7669;SDS011;3877;42.562;27.636;2022-10-26T03:25:02;7.70;;;4.43;;
7669;SDS011;3877;42.562;27.636;2022-10-26T03:27:31;8.48;;;4.72;;
7669;SDS011;3877;42.562;27.636;2022-10-26T03:29:59;8.82;;;4.60;;
7669;SDS011;3877;42.562;27.636;2022-10-26T03:32:26;8.50;;;4.50;;
7669;SDS011;3877;42.562;27.636;2022-10-26T03:34:53;8.95;;;4.70;;
7669;SDS011;3877;42.562;27.636;2022-10-26T03:37:20;6.15;;;4.40;;
7669;SDS011;3877;42.562;27.636;2022-10-26T03:39:47;9.05;;;5.15;;
7669;SDS011;3877;42.562;27.636;2022-10-26T03:42:13;8.88;;;4.55;;
7669;SDS011;3877;42.562;27.636;2022-10-26T03:44:42;6.85;;;4.35;;
7669;SDS011;3877;42.562;27.636;2022-10-26T03:47:09;8.57;;;4.72;;
7669;SDS011;3877;42.562;27.636;2022-10-26T03:49:35;9.85;;;4.25;;
7669;SDS011;3877;42.562;27.636;2022-10-26T03:52:02;10.93;;;5.50;;
7669;SDS011;3877;42.562;27.636;2022-10-26T03:54:29;7.72;;;5.03;;
7669;SDS011;3877;42.562;27.636;2022-10-26T03:56:56;8.60;;;4.50;;
7669;SDS011;3877;42.562;27.636;2022-10-26T03:59:23;10.17;;;5.17;;
7669;SDS011;3877;42.562;27.636;2022-10-26T04:01:52;8.70;;;5.13;;
7669;SDS011;3877;42.562;27.636;2022-10-26T04:04:19;10.90;;;5.15;;
7669;SDS011;3877;42.562;27.636;2022-10-26T04:06:45;12.35;;;5.15;;
7669;SDS011;3877;42.562;27.636;2022-10-26T04:09:12;8.15;;;4.82;;
7669;SDS011;3877;42.562;27.636;2022-10-26T04:11:39;11.65;;;4.97;;
7669;SDS011;3877;42.562;27.636;2022-10-26T04:14:06;8.75;;;5.30;;
7669;SDS011;3877;42.562;27.636;2022-10-26T04:16:33;7.97;;;5.07;;
7669;SDS011;3877;42.562;27.636;2022-10-26T04:19:01;13.45;;;5.47;;
7669;SDS011;3877;42.562;27.636;2022-10-26T04:21:28;11.27;;;5.22;;
7669;SDS011;3877;42.562;27.636;2022-10-26T04:23:57;7.83;;;4.83;;
7669;SDS011;3877;42.562;27.636;2022-10-26T04:26:24;6.80;;;5.43;;
7669;SDS011;3877;42.562;27.636;2022-10-26T04:28:50;11.07;;;5.63;;
7669;SDS011;3877;42.562;27.636;2022-10-26T04:31:17;14.43;;;5.50;;
7669;SDS011;3877;42.562;27.636;2022-10-26T04:33:44;10.10;;;5.40;;
7669;SDS011;3877;42.562;27.636;2022-10-26T04:36:13;9.20;;;5.20;;
7669;SDS011;3877;42.562;27.636;2022-10-26T04:38:40;10.33;;;5.77;;
7669;SDS011;3877;42.562;27.636;2022-10-26T04:41:07;8.67;;;5.17;;
7669;SDS011;3877;42.562;27.636;2022-10-26T04:43:35;9.33;;;5.37;;
7669;SDS011;3877;42.562;27.636;2022-10-26T04:46:01;12.57;;;6.00;;
7669;SDS011;3877;42.562;27.636;2022-10-26T04:48:28;9.15;;;5.55;;
7669;SDS011;3877;42.562;27.636;2022-10-26T04:50:57;12.90;;;5.97;;
7669;SDS011;3877;42.562;27.636;2022-10-26T04:53:25;13.07;;;5.77;;
7669;SDS011;3877;42.562;27.636;2022-10-26T04:55:55;10.73;;;6.05;;
7669;SDS011;3877;42.562;27.636;2022-10-26T04:58:21;15.03;;;6.00;;
7669;SDS011;3877;42.562;27.636;2022-10-26T05:00:49;15.57;;;6.23;;
7669;SDS011;3877;42.562;27.636;2022-10-26T05:03:16;17.73;;;6.13;;
7669;SDS011;3877;42.562;27.636;2022-10-26T05:05:43;12.10;;;6.80;;
7669;SDS011;3877;42.562;27.636;2022-10-26T05:08:12;13.90;;;7.00;;
7669;SDS011;3877;42.562;27.636;2022-10-26T05:10:40;11.33;;;6.13;;
7669;SDS011;3877;42.562;27.636;2022-10-26T05:13:08;10.77;;;5.67;;
7669;SDS011;3877;42.562;27.636;2022-10-26T05:15:35;12.47;;;5.83;;
7669;SDS011;3877;42.562;27.636;2022-10-26T05:18:02;11.50;;;5.37;;
7669;SDS011;3877;42.562;27.636;2022-10-26T05:20:30;9.83;;;5.60;;
7669;SDS011;3877;42.562;27.636;2022-10-26T05:22:57;13.17;;;5.60;;
7669;SDS011;3877;42.562;27.636;2022-10-26T05:25:25;16.23;;;5.77;;
7669;SDS011;3877;42.562;27.636;2022-10-26T05:27:57;10.80;;;5.70;;
7669;SDS011;3877;42.562;27.636;2022-10-26T05:30:24;10.43;;;6.40;;
7669;SDS011;3877;42.562;27.636;2022-10-26T05:32:54;17.10;;;6.68;;
7669;SDS011;3877;42.562;27.636;2022-10-26T05:35:21;9.77;;;6.10;;
7669;SDS011;3877;42.562;27.636;2022-10-26T05:37:48;12.57;;;5.93;;
7669;SDS011;3877;42.562;27.636;2022-10-26T05:40:15;9.97;;;5.80;;
7669;SDS011;3877;42.562;27.636;2022-10-26T05:42:42;9.97;;;5.33;;
7669;SDS011;3877;42.562;27.636;2022-10-26T05:45:12;8.27;;;4.67;;
7669;SDS011;3877;42.562;27.636;2022-10-26T05:47:39;8.27;;;4.73;;
7669;SDS011;3877;42.562;27.636;2022-10-26T05:50:06;9.30;;;4.80;;
7669;SDS011;3877;42.562;27.636;2022-10-26T05:52:37;11.20;;;5.03;;
7669;SDS011;3877;42.562;27.636;2022-10-26T05:55:04;11.63;;;5.10;;
7669;SDS011;3877;42.562;27.636;2022-10-26T05:57:31;7.15;;;4.82;;
7669;SDS011;3877;42.562;27.636;2022-10-26T05:59:58;12.37;;;4.80;;
7669;SDS011;3877;42.562;27.636;2022-10-26T06:02:28;13.93;;;5.17;;
7669;SDS011;3877;42.562;27.636;2022-10-26T06:05:01;9.40;;;5.17;;
7669;SDS011;3877;42.562;27.636;2022-10-26T06:07:28;7.83;;;4.83;;
7669;SDS011;3877;42.562;27.636;2022-10-26T06:09:56;7.68;;;4.43;;
7669;SDS011;3877;42.562;27.636;2022-10-26T06:12:23;10.18;;;4.43;;
7669;SDS011;3877;42.562;27.636;2022-10-26T06:14:51;10.82;;;5.15;;
7669;SDS011;3877;42.562;27.636;2022-10-26T06:17:24;6.20;;;4.57;;
7669;SDS011;3877;42.562;27.636;2022-10-26T06:19:59;10.30;;;4.63;;
7669;SDS011;3877;42.562;27.636;2022-10-26T06:22:35;10.48;;;4.80;;
7669;SDS011;3877;42.562;27.636;2022-10-26T06:25:08;11.38;;;5.05;;
7669;SDS011;3877;42.562;27.636;2022-10-26T06:27:40;11.30;;;5.13;;
7669;SDS011;3877;42.562;27.636;2022-10-26T06:30:09;7.73;;;4.60;;
7669;SDS011;3877;42.562;27.636;2022-10-26T06:32:37;8.50;;;4.53;;
7669;SDS011;3877;42.562;27.636;2022-10-26T06:35:13;8.68;;;4.68;;
7669;SDS011;3877;42.562;27.636;2022-10-26T06:37:41;10.53;;;4.57;;
7669;SDS011;3877;42.562;27.636;2022-10-26T06:40:08;8.48;;;4.15;;
7669;SDS011;3877;42.562;27.636;2022-10-26T06:42:36;14.32;;;4.95;;
7669;SDS011;3877;42.562;27.636;2022-10-26T06:45:04;7.90;;;5.22;;
7669;SDS011;3877;42.562;27.636;2022-10-26T06:47:32;10.77;;;4.38;;
7669;SDS011;3877;42.562;27.636;2022-10-26T06:50:05;9.82;;;5.13;;
7669;SDS011;3877;42.562;27.636;2022-10-26T06:52:40;5.88;;;4.75;;
7669;SDS011;3877;42.562;27.636;2022-10-26T06:55:11;7.70;;;4.68;;
7669;SDS011;3877;42.562;27.636;2022-10-26T06:57:38;7.20;;;4.80;;
7669;SDS011;3877;42.562;27.636;2022-10-26T07:00:07;8.32;;;4.57;;
7669;SDS011;3877;42.562;27.636;2022-10-26T07:02:39;7.90;;;4.13;;
7669;SDS011;3877;42.562;27.636;2022-10-26T07:05:06;7.35;;;4.30;;
7669;SDS011;3877;42.562;27.636;2022-10-26T07:07:39;7.35;;;4.05;;
7669;SDS011;3877;42.562;27.636;2022-10-26T07:10:07;7.35;;;4.53;;
7669;SDS011;3877;42.562;27.636;2022-10-26T07:12:34;8.35;;;3.88;;
7669;SDS011;3877;42.562;27.636;2022-10-26T07:15:01;6.68;;;4.40;;
7669;SDS011;3877;42.562;27.636;2022-10-26T07:17:28;7.40;;;3.75;;
7669;SDS011;3877;42.562;27.636;2022-10-26T07:19:55;6.22;;;4.15;;
7669;SDS011;3877;42.562;27.636;2022-10-26T07:22:22;8.15;;;4.43;;
7669;SDS011;3877;42.562;27.636;2022-10-26T07:24:51;8.02;;;4.57;;
7669;SDS011;3877;42.562;27.636;2022-10-26T07:27:17;7.18;;;3.72;;
7669;SDS011;3877;42.562;27.636;2022-10-26T07:29:45;6.10;;;3.90;;
7669;SDS011;3877;42.562;27.636;2022-10-26T07:32:12;10.38;;;3.95;;
7669;SDS011;3877;42.562;27.636;2022-10-26T07:34:38;8.95;;;4.03;;
7669;SDS011;3877;42.562;27.636;2022-10-26T07:37:05;6.93;;;3.78;;
7669;SDS011;3877;42.562;27.636;2022-10-26T07:39:32;8.95;;;4.05;;
7669;SDS011;3877;42.562;27.636;2022-10-26T07:42:00;7.88;;;4.07;;
7669;SDS011;3877;42.562;27.636;2022-10-26T07:44:27;6.78;;;3.65;;
7669;SDS011;3877;42.562;27.636;2022-10-26T07:46:54;11.80;;;4.28;;
7669;SDS011;3877;42.562;27.636;2022-10-26T07:49:21;7.70;;;3.88;;
7669;SDS011;3877;42.562;27.636;2022-10-26T07:51:48;5.53;;;3.80;;
7669;SDS011;3877;42.562;27.636;2022-10-26T07:54:15;8.40;;;3.67;;
7669;SDS011;3877;42.562;27.636;2022-10-26T07:56:41;8.25;;;4.13;;
7669;SDS011;3877;42.562;27.636;2022-10-26T07:59:11;9.60;;;4.13;;
7669;SDS011;3877;42.562;27.636;2022-10-26T08:01:38;7.22;;;3.95;;
7669;SDS011;3877;42.562;27.636;2022-10-26T08:04:06;7.78;;;4.47;;
7669;SDS011;3877;42.562;27.636;2022-10-26T08:06:32;13.43;;;5.15;;
7669;SDS011;3877;42.562;27.636;2022-10-26T08:08:59;9.27;;;4.90;;
7669;SDS011;3877;42.562;27.636;2022-10-26T08:11:26;9.05;;;4.03;;
7669;SDS011;3877;42.562;27.636;2022-10-26T08:13:53;11.90;;;4.70;;
7669;SDS011;3877;42.562;27.636;2022-10-26T08:16:22;7.38;;;4.05;;
7669;SDS011;3877;42.562;27.636;2022-10-26T08:18:49;5.68;;;3.72;;
7669;SDS011;3877;42.562;27.636;2022-10-26T08:21:16;7.53;;;4.32;;
7669;SDS011;3877;42.562;27.636;2022-10-26T08:23:43;8.43;;;3.83;;
7669;SDS011;3877;42.562;27.636;2022-10-26T08:26:11;7.55;;;3.97;;
7669;SDS011;3877;42.562;27.636;2022-10-26T08:28:38;18.48;;;3.97;;
7669;SDS011;3877;42.562;27.636;2022-10-26T08:31:05;14.02;;;4.68;;
7669;SDS011;3877;42.562;27.636;2022-10-26T08:33:33;11.27;;;6.05;;
7669;SDS011;3877;42.562;27.636;2022-10-26T08:36:01;15.00;;;4.93;;
7669;SDS011;3877;42.562;27.636;2022-10-26T08:38:28;7.38;;;4.20;;
7669;SDS011;3877;42.562;27.636;2022-10-26T08:40:55;13.98;;;4.93;;
7669;SDS011;3877;42.562;27.636;2022-10-26T08:43:23;8.15;;;4.10;;
7669;SDS011;3877;42.562;27.636;2022-10-26T08:45:54;9.38;;;4.07;;
7669;SDS011;3877;42.562;27.636;2022-10-26T08:48:24;6.45;;;4.63;;
7669;SDS011;3877;42.562;27.636;2022-10-26T08:50:54;10.65;;;5.13;;
7669;SDS011;3877;42.562;27.636;2022-10-26T08:53:24;9.77;;;5.03;;
7669;SDS011;3877;42.562;27.636;2022-10-26T08:55:53;14.38;;;7.03;;
7669;SDS011;3877;42.562;27.636;2022-10-26T08:58:22;11.40;;;6.15;;
7669;SDS011;3877;42.562;27.636;2022-10-26T09:00:51;16.65;;;6.05;;
7669;SDS011;3877;42.562;27.636;2022-10-26T09:03:18;11.10;;;5.55;;
7669;SDS011;3877;42.562;27.636;2022-10-26T09:05:48;14.18;;;5.82;;
7669;SDS011;3877;42.562;27.636;2022-10-26T09:08:22;7.65;;;5.20;;
7669;SDS011;3877;42.562;27.636;2022-10-26T09:10:52;8.15;;;4.82;;
7669;SDS011;3877;42.562;27.636;2022-10-26T09:13:24;6.80;;;4.60;;
7669;SDS011;3877;42.562;27.636;2022-10-26T09:15:56;8.45;;;4.60;;
7669;SDS011;3877;42.562;27.636;2022-10-26T09:18:29;13.80;;;5.13;;
7669;SDS011;3877;42.562;27.636;2022-10-26T09:21:03;9.35;;;4.47;;
7669;SDS011;3877;42.562;27.636;2022-10-26T09:23:42;10.07;;;4.28;;
7669;SDS011;3877;42.562;27.636;2022-10-26T09:26:13;7.28;;;3.70;;
7669;SDS011;3877;42.562;27.636;2022-10-26T09:28:40;8.63;;;4.30;;
7669;SDS011;3877;42.562;27.636;2022-10-26T09:31:08;9.23;;;4.40;;
7669;SDS011;3877;42.562;27.636;2022-10-26T09:33:36;5.63;;;3.50;;
7669;SDS011;3877;42.562;27.636;2022-10-26T09:36:05;9.15;;;3.80;;
7669;SDS011;3877;42.562;27.636;2022-10-26T09:38:33;7.18;;;4.40;;
7669;SDS011;3877;42.562;27.636;2022-10-26T09:41:04;27.08;;;17.70;;
7669;SDS011;3877;42.562;27.636;2022-10-26T09:43:32;11.50;;;6.75;;
7669;SDS011;3877;42.562;27.636;2022-10-26T09:46:01;14.32;;;8.82;;
7669;SDS011;3877;42.562;27.636;2022-10-26T09:48:30;9.85;;;6.30;;
7669;SDS011;3877;42.562;27.636;2022-10-26T09:50:58;8.23;;;5.40;;
7669;SDS011;3877;42.562;27.636;2022-10-26T09:53:25;11.88;;;5.40;;
7669;SDS011;3877;42.562;27.636;2022-10-26T09:55:55;8.95;;;4.60;;
7669;SDS011;3877;42.562;27.636;2022-10-26T09:58:27;11.40;;;5.07;;
7669;SDS011;3877;42.562;27.636;2022-10-26T10:00:55;12.50;;;4.60;;
7669;SDS011;3877;42.562;27.636;2022-10-26T10:03:24;8.98;;;4.72;;
7669;SDS011;3877;42.562;27.636;2022-10-26T10:05:51;8.40;;;4.47;;
7669;SDS011;3877;42.562;27.636;2022-10-26T10:08:19;9.98;;;4.68;;
7669;SDS011;3877;42.562;27.636;2022-10-26T10:10:56;6.43;;;4.53;;
7669;SDS011;3877;42.562;27.636;2022-10-26T10:13:23;10.30;;;4.60;;
7669;SDS011;3877;42.562;27.636;2022-10-26T10:15:53;8.75;;;5.25;;
7669;SDS011;3877;42.562;27.636;2022-10-26T10:18:20;16.00;;;5.10;;
7669;SDS011;3877;42.562;27.636;2022-10-26T10:20:51;10.02;;;4.47;;
7669;SDS011;3877;42.562;27.636;2022-10-26T10:23:26;8.23;;;4.95;;
7669;SDS011;3877;42.562;27.636;2022-10-26T10:26:00;8.55;;;4.40;;
7669;SDS011;3877;42.562;27.636;2022-10-26T10:28:27;9.15;;;4.22;;
7669;SDS011;3877;42.562;27.636;2022-10-26T10:30:57;6.25;;;4.50;;
7669;SDS011;3877;42.562;27.636;2022-10-26T10:33:31;14.07;;;4.68;;
7669;SDS011;3877;42.562;27.636;2022-10-26T10:35:58;12.85;;;4.85;;
7669;SDS011;3877;42.562;27.636;2022-10-26T10:38:26;9.30;;;4.43;;
7669;SDS011;3877;42.562;27.636;2022-10-26T10:40:54;7.82;;;5.28;;
7669;SDS011;3877;42.562;27.636;2022-10-26T10:43:23;9.38;;;5.43;;
7669;SDS011;3877;42.562;27.636;2022-10-26T10:45:52;7.68;;;4.30;;
7669;SDS011;3877;42.562;27.636;2022-10-26T10:48:22;10.30;;;4.13;;
7669;SDS011;3877;42.562;27.636;2022-10-26T10:50:51;8.85;;;3.97;;
7669;SDS011;3877;42.562;27.636;2022-10-26T10:53:19;6.80;;;3.55;;
7669;SDS011;3877;42.562;27.636;2022-10-26T10:55:51;6.47;;;4.20;;
7669;SDS011;3877;42.562;27.636;2022-10-26T10:58:22;7.78;;;3.90;;
7669;SDS011;3877;42.562;27.636;2022-10-26T11:00:52;7.88;;;4.13;;
7669;SDS011;3877;42.562;27.636;2022-10-26T11:03:35;8.98;;;4.30;;
7669;SDS011;3877;42.562;27.636;2022-10-26T11:06:09;10.90;;;4.00;;
7669;SDS011;3877;42.562;27.636;2022-10-26T11:08:37;5.03;;;3.63;;
7669;SDS011;3877;42.562;27.636;2022-10-26T11:11:08;9.10;;;4.30;;
7669;SDS011;3877;42.562;27.636;2022-10-26T11:13:37;10.63;;;4.00;;
7669;SDS011;3877;42.562;27.636;2022-10-26T11:16:09;8.23;;;4.10;;
7669;SDS011;3877;42.562;27.636;2022-10-26T11:18:40;6.32;;;3.60;;
7669;SDS011;3877;42.562;27.636;2022-10-26T11:21:13;6.05;;;3.38;;
7669;SDS011;3877;42.562;27.636;2022-10-26T11:23:42;5.82;;;3.65;;
7669;SDS011;3877;42.562;27.636;2022-10-26T11:26:12;6.63;;;3.95;;
7669;SDS011;3877;42.562;27.636;2022-10-26T11:28:44;7.53;;;3.83;;
7669;SDS011;3877;42.562;27.636;2022-10-26T11:31:12;9.15;;;4.07;;
7669;SDS011;3877;42.562;27.636;2022-10-26T11:33:43;5.60;;;3.55;;
7669;SDS011;3877;42.562;27.636;2022-10-26T11:36:12;5.28;;;3.80;;
7669;SDS011;3877;42.562;27.636;2022-10-26T11:38:42;8.23;;;4.05;;
7669;SDS011;3877;42.562;27.636;2022-10-26T11:41:12;5.70;;;4.07;;
7669;SDS011;3877;42.562;27.636;2022-10-26T11:43:42;5.93;;;4.43;;
7669;SDS011;3877;42.562;27.636;2022-10-26T11:46:11;5.75;;;4.15;;
7669;SDS011;3877;42.562;27.636;2022-10-26T11:48:40;9.88;;;4.18;;
7669;SDS011;3877;42.562;27.636;2022-10-26T11:51:12;7.30;;;3.88;;
7669;SDS011;3877;42.562;27.636;2022-10-26T11:53:41;9.15;;;3.88;;
7669;SDS011;3877;42.562;27.636;2022-10-26T11:56:10;5.15;;;3.78;;
7669;SDS011;3877;42.562;27.636;2022-10-26T11:58:38;8.75;;;4.43;;
7669;SDS011;3877;42.562;27.636;2022-10-26T12:01:06;8.93;;;4.25;;
7669;SDS011;3877;42.562;27.636;2022-10-26T12:03:35;7.43;;;4.18;;
7669;SDS011;3877;42.562;27.636;2022-10-26T12:06:04;8.45;;;3.95;;
7669;SDS011;3877;42.562;27.636;2022-10-26T12:08:34;11.10;;;4.22;;
7669;SDS011;3877;42.562;27.636;2022-10-26T12:11:04;6.43;;;4.00;;
7669;SDS011;3877;42.562;27.636;2022-10-26T12:13:33;8.27;;;3.58;;
7669;SDS011;3877;42.562;27.636;2022-10-26T12:16:03;6.50;;;3.70;;
7669;SDS011;3877;42.562;27.636;2022-10-26T12:18:35;5.40;;;3.78;;
7669;SDS011;3877;42.562;27.636;2022-10-26T12:21:04;7.65;;;3.70;;
7669;SDS011;3877;42.562;27.636;2022-10-26T12:23:34;9.23;;;4.13;;
7669;SDS011;3877;42.562;27.636;2022-10-26T12:31:40;5.38;;;3.42;;
7669;SDS011;3877;42.562;27.636;2022-10-26T12:34:10;4.03;;;3.60;;
7669;SDS011;3877;42.562;27.636;2022-10-26T12:36:46;10.35;;;4.13;;
7669;SDS011;3877;42.562;27.636;2022-10-26T12:41:56;5.60;;;3.80;;
7669;SDS011;3877;42.562;27.636;2022-10-26T12:44:30;7.70;;;4.00;;
7669;SDS011;3877;42.562;27.636;2022-10-26T12:46:58;6.38;;;3.70;;
7669;SDS011;3877;42.562;27.636;2022-10-26T12:57:45;7.95;;;4.00;;
7669;SDS011;3877;42.562;27.636;2022-10-26T13:00:14;5.65;;;3.40;;
7669;SDS011;3877;42.562;27.636;2022-10-26T13:02:45;8.98;;;3.88;;
7669;SDS011;3877;42.562;27.636;2022-10-26T13:08:00;4.68;;;3.55;;
7669;SDS011;3877;42.562;27.636;2022-10-26T13:10:27;8.27;;;4.03;;
7669;SDS011;3877;42.562;27.636;2022-10-26T13:12:56;8.23;;;3.67;;
7669;SDS011;3877;42.562;27.636;2022-10-26T13:15:25;9.45;;;4.55;;
7669;SDS011;3877;42.562;27.636;2022-10-26T13:17:53;8.95;;;3.95;;
7669;SDS011;3877;42.562;27.636;2022-10-26T13:20:20;7.30;;;4.22;;
7669;SDS011;3877;42.562;27.636;2022-10-26T13:22:47;6.38;;;3.60;;
7669;SDS011;3877;42.562;27.636;2022-10-26T13:25:18;7.72;;;4.03;;
7669;SDS011;3877;42.562;27.636;2022-10-26T13:27:56;11.60;;;4.78;;
7669;SDS011;3877;42.562;27.636;2022-10-26T13:33:19;10.25;;;3.88;;
7669;SDS011;3877;42.562;27.636;2022-10-26T13:35:47;4.47;;;3.90;;
7669;SDS011;3877;42.562;27.636;2022-10-26T13:38:15;5.38;;;3.63;;
7669;SDS011;3877;42.562;27.636;2022-10-26T13:40:44;10.95;;;4.05;;
7669;SDS011;3877;42.562;27.636;2022-10-26T13:43:13;13.10;;;3.83;;
7669;SDS011;3877;42.562;27.636;2022-10-26T13:45:45;7.88;;;3.97;;
7669;SDS011;3877;42.562;27.636;2022-10-26T13:48:13;7.32;;;4.20;;
7669;SDS011;3877;42.562;27.636;2022-10-26T13:50:45;9.82;;;4.13;;
7669;SDS011;3877;42.562;27.636;2022-10-26T13:53:14;9.35;;;4.10;;
7669;SDS011;3877;42.562;27.636;2022-10-26T13:55:47;9.02;;;4.28;;
7669;SDS011;3877;42.562;27.636;2022-10-26T13:58:17;7.57;;;4.20;;
7669;SDS011;3877;42.562;27.636;2022-10-26T14:03:27;7.80;;;4.13;;
7669;SDS011;3877;42.562;27.636;2022-10-26T14:05:55;10.43;;;4.30;;
7669;SDS011;3877;42.562;27.636;2022-10-26T14:08:22;4.95;;;3.75;;
7669;SDS011;3877;42.562;27.636;2022-10-26T14:10:51;23.00;;;20.27;;
7669;SDS011;3877;42.562;27.636;2022-10-26T14:13:20;9.32;;;4.40;;
7669;SDS011;3877;42.562;27.636;2022-10-26T14:15:49;10.70;;;4.90;;
7669;SDS011;3877;42.562;27.636;2022-10-26T14:18:17;6.18;;;3.85;;
7669;SDS011;3877;42.562;27.636;2022-10-26T14:20:46;9.80;;;4.30;;
7669;SDS011;3877;42.562;27.636;2022-10-26T14:23:26;8.82;;;4.20;;
7669;SDS011;3877;42.562;27.636;2022-10-26T14:25:53;6.88;;;4.32;;
7669;SDS011;3877;42.562;27.636;2022-10-26T14:28:21;6.13;;;4.10;;
7669;SDS011;3877;42.562;27.636;2022-10-26T14:30:48;7.70;;;4.03;;
7669;SDS011;3877;42.562;27.636;2022-10-26T14:33:18;7.32;;;4.63;;
7669;SDS011;3877;42.562;27.636;2022-10-26T14:35:46;8.83;;;4.40;;
7669;SDS011;3877;42.562;27.636;2022-10-26T14:38:15;6.15;;;4.30;;
7669;SDS011;3877;42.562;27.636;2022-10-26T14:40:45;9.32;;;4.57;;
7669;SDS011;3877;42.562;27.636;2022-10-26T14:43:14;10.68;;;7.22;;
7669;SDS011;3877;42.562;27.636;2022-10-26T14:45:45;10.52;;;5.60;;
7669;SDS011;3877;42.562;27.636;2022-10-26T14:48:18;9.35;;;4.65;;
7669;SDS011;3877;42.562;27.636;2022-10-26T14:50:56;13.17;;;4.90;;
7669;SDS011;3877;42.562;27.636;2022-10-26T14:53:24;6.35;;;4.72;;
7669;SDS011;3877;42.562;27.636;2022-10-26T14:55:56;6.68;;;4.63;;
7669;SDS011;3877;42.562;27.636;2022-10-26T14:58:25;10.55;;;4.07;;
7669;SDS011;3877;42.562;27.636;2022-10-26T15:03:37;9.82;;;4.10;;
7669;SDS011;3877;42.562;27.636;2022-10-26T15:08:53;6.57;;;4.30;;
7669;SDS011;3877;42.562;27.636;2022-10-26T15:11:21;7.70;;;5.68;;
7669;SDS011;3877;42.562;27.636;2022-10-26T15:13:48;9.03;;;4.90;;
7669;SDS011;3877;42.562;27.636;2022-10-26T15:16:15;8.98;;;4.43;;
7669;SDS011;3877;42.562;27.636;2022-10-26T15:18:43;6.87;;;4.60;;
7669;SDS011;3877;42.562;27.636;2022-10-26T15:21:17;10.27;;;4.65;;
7669;SDS011;3877;42.562;27.636;2022-10-26T15:23:47;8.43;;;4.90;;
7669;SDS011;3877;42.562;27.636;2022-10-26T15:26:14;9.88;;;4.70;;
7669;SDS011;3877;42.562;27.636;2022-10-26T15:28:42;6.87;;;4.40;;
7669;SDS011;3877;42.562;27.636;2022-10-26T15:31:23;10.52;;;5.38;;
7669;SDS011;3877;42.562;27.636;2022-10-26T15:34:06;9.33;;;5.60;;
7669;SDS011;3877;42.562;27.636;2022-10-26T15:36:37;9.17;;;5.30;;